Time;durP1;ratioP1;P1;durP2;ratioP2;P2;SDS_P1;SDS_P2;PMS_P1;PMS_P2;Temp;Humidity;BMP_temperature;BMP_pressure;BME280_temperature;BME280_humidity;BME280_pressure;Samples;Min_cycle;Max_cycle;Signal;HPM_P1;HPM_P2
2023/12/14 00:01:25;;;;;;;3.23;2.93;;;;;;;;;;6185379;23;20183;-89
2023/12/14 00:03:54;;;;;;;3.83;3.03;;;;;;;;;;6186516;23;20182;-89
2023/12/14 00:06:22;;;;;;;5.50;4.63;;;;;;;;;;6185941;23;20375;-89
2023/12/14 00:08:51;;;;;;;7.67;5.03;;;;;;;;;;6185408;23;20241;-88
2023/12/14 00:11:21;;;;;;;3.93;2.40;;;;;;;;;;6185754;23;20492;-89
2023/12/14 00:13:49;;;;;;;3.23;2.93;;;;;;;;;;6186246;23;20198;-89
2023/12/14 00:16:18;;;;;;;4.23;3.70;;;;;;;;;;6186333;23;20217;-88
2023/12/14 00:18:46;;;;;;;8.27;4.17;;;;;;;;;;6185135;23;20229;-90
2023/12/14 00:21:15;;;;;;;5.87;4.10;;;;;;;;;;6185417;23;20225;-88
2023/12/14 00:23:43;;;;;;;1.93;1.83;;;;;;;;;;6185436;23;20199;-89
2023/12/14 00:26:12;;;;;;;6.03;3.80;;;;;;;;;;6185737;23;20226;-89
2023/12/14 00:28:42;;;;;;;13.63;6.80;;;;;;;;;;6185380;23;20175;-89
2023/12/14 00:31:11;;;;;;;7.30;4.20;;;;;;;;;;6185600;23;20210;-89
2023/12/14 00:33:40;;;;;;;4.07;3.33;;;;;;;;;;6184909;23;20314;-89
2023/12/14 00:36:09;;;;;;;4.00;3.17;;;;;;;;;;6185629;23;20175;-89
2023/12/14 00:38:39;;;;;;;7.77;4.60;;;;;;;;;;6185545;23;20171;-89
2023/12/14 00:41:08;;;;;;;5.53;4.20;;;;;;;;;;6185088;23;20179;-89
2023/12/14 00:43:38;;;;;;;3.23;2.97;;;;;;;;;;6185610;23;20163;-89
2023/12/14 00:46:09;;;;;;;5.23;4.23;;;;;;;;;;6186097;23;20167;-88
2023/12/14 00:48:37;;;;;;;4.93;3.47;;;;;;;;;;6185145;23;20198;-90
2023/12/14 00:51:06;;;;;;;7.13;3.20;;;;;;;;;;6184966;23;20213;-89
2023/12/14 00:53:34;;;;;;;3.47;3.17;;;;;;;;;;6185259;23;20197;-90
2023/12/14 00:56:03;;;;;;;4.97;3.80;;;;;;;;;;6185177;23;20182;-88
2023/12/14 00:58:32;;;;;;;5.50;3.37;;;;;;;;;;6184329;23;20175;-89
2023/12/14 01:01:00;;;;;;;2.83;2.57;;;;;;;;;;6184940;23;20179;-90
2023/12/14 01:03:30;;;;;;;4.40;4.00;;;;;;;;;;6185299;23;20215;-89
2023/12/14 01:05:58;;;;;;;3.17;2.77;;;;;;;;;;6184923;23;20171;-88
2023/12/14 01:08:27;;;;;;;5.63;3.70;;;;;;;;;;6185189;23;20270;-88
2023/12/14 01:10:55;;;;;;;3.30;3.03;;;;;;;;;;6184184;23;20178;-89
2023/12/14 01:13:24;;;;;;;7.67;4.03;;;;;;;;;;6185003;23;20289;-89
2023/12/14 01:15:52;;;;;;;3.30;2.87;;;;;;;;;;6185656;23;20167;-89
2023/12/14 01:18:21;;;;;;;5.47;3.80;;;;;;;;;;6184606;23;20179;-90
2023/12/14 01:20:51;;;;;;;3.93;3.73;;;;;;;;;;6184849;23;20210;-90
2023/12/14 01:23:20;;;;;;;4.67;3.27;;;;;;;;;;6185108;23;20183;-89
2023/12/14 01:25:48;;;;;;;3.63;2.73;;;;;;;;;;6186730;23;20171;-89
2023/12/14 01:28:17;;;;;;;5.40;3.97;;;;;;;;;;6187116;23;20201;-89
2023/12/14 01:30:45;;;;;;;7.13;3.90;;;;;;;;;;6186564;23;20181;-89
2023/12/14 01:33:14;;;;;;;7.60;3.53;;;;;;;;;;6186261;23;20206;-90
2023/12/14 01:35:43;;;;;;;3.30;3.00;;;;;;;;;;6186311;23;20171;-87
2023/12/14 01:38:12;;;;;;;3.73;3.43;;;;;;;;;;6186488;23;20191;-89
2023/12/14 01:40:41;;;;;;;4.73;4.33;;;;;;;;;;6187144;23;20206;-89
2023/12/14 01:43:10;;;;;;;3.83;3.57;;;;;;;;;;6186824;23;20182;-89
2023/12/14 01:45:39;;;;;;;2.90;2.60;;;;;;;;;;6187060;23;20274;-88
2023/12/14 01:48:07;;;;;;;3.83;3.37;;;;;;;;;;6185924;23;20183;-89
2023/12/14 01:50:36;;;;;;;3.07;2.77;;;;;;;;;;6185815;23;20171;-89
2023/12/14 01:53:04;;;;;;;3.20;3.00;;;;;;;;;;6186214;23;20175;-89
2023/12/14 01:55:34;;;;;;;4.73;3.73;;;;;;;;;;6186013;23;20249;-90
2023/12/14 01:58:03;;;;;;;2.43;2.23;;;;;;;;;;6186079;23;20171;-88
2023/12/14 02:00:35;;;;;;;2.63;2.43;;;;;;;;;;6186027;23;20229;-90
2023/12/14 02:03:04;;;;;;;2.93;2.40;;;;;;;;;;6185779;23;20176;-89
2023/12/14 02:05:32;;;;;;;3.63;3.20;;;;;;;;;;6186928;23;20175;-90
2023/12/14 02:08:01;;;;;;;4.00;3.07;;;;;;;;;;6186163;23;20194;-89
2023/12/14 02:10:30;;;;;;;3.73;3.20;;;;;;;;;;6185786;23;20185;-89
2023/12/14 02:13:00;;;;;;;3.43;2.70;;;;;;;;;;6185681;23;20214;-88
2023/12/14 02:15:28;;;;;;;4.60;4.20;;;;;;;;;;6186291;23;20196;-89
2023/12/14 02:17:56;;;;;;;2.43;2.30;;;;;;;;;;6186576;23;20201;-89
2023/12/14 02:20:25;;;;;;;1.70;1.60;;;;;;;;;;6186314;23;20270;-89
2023/12/14 02:22:55;;;;;;;3.43;3.13;;;;;;;;;;6185438;23;20193;-89
2023/12/14 02:25:24;;;;;;;2.87;2.67;;;;;;;;;;6185947;23;20214;-89
2023/12/14 02:27:53;;;;;;;1.67;1.57;;;;;;;;;;6185823;23;20201;-89
2023/12/14 02:30:21;;;;;;;2.60;2.40;;;;;;;;;;6185343;23;20179;-89
2023/12/14 02:32:50;;;;;;;3.10;2.17;;;;;;;;;;6185484;23;20234;-89
2023/12/14 02:35:19;;;;;;;2.00;1.90;;;;;;;;;;6185423;23;20190;-89
2023/12/14 02:37:47;;;;;;;2.30;1.93;;;;;;;;;;6185326;23;20202;-88
2023/12/14 02:40:17;;;;;;;3.77;2.17;;;;;;;;;;6185078;23;20247;-88
2023/12/14 02:42:45;;;;;;;1.80;1.70;;;;;;;;;;6185867;23;20198;-89
2023/12/14 02:45:14;;;;;;;5.13;2.57;;;;;;;;;;6186265;23;20179;-89
2023/12/14 02:47:42;;;;;;;3.03;1.37;;;;;;;;;;6185810;23;20179;-89
2023/12/14 02:50:11;;;;;;;3.60;2.57;;;;;;;;;;6185244;23;20264;-88
2023/12/14 02:52:39;;;;;;;2.30;2.17;;;;;;;;;;6185111;23;20260;-89
2023/12/14 02:55:08;;;;;;;1.37;1.20;;;;;;;;;;6185502;23;20218;-88
2023/12/14 02:57:38;;;;;;;1.20;1.20;;;;;;;;;;6185458;23;20171;-88
2023/12/14 03:00:07;;;;;;;5.80;2.90;;;;;;;;;;6185212;23;20183;-89
2023/12/14 03:02:36;;;;;;;1.60;1.50;;;;;;;;;;6185036;23;20282;-89
2023/12/14 03:05:05;;;;;;;1.17;1.17;;;;;;;;;;6185325;23;20171;-89
2023/12/14 03:07:36;;;;;;;3.30;1.77;;;;;;;;;;6184978;23;20234;-89
2023/12/14 03:10:05;;;;;;;1.90;1.80;;;;;;;;;;6184774;23;20183;-89
2023/12/14 03:12:34;;;;;;;3.50;1.53;;;;;;;;;;6185128;23;20183;-88
2023/12/14 03:15:04;;;;;;;6.00;2.23;;;;;;;;;;6184994;23;20199;-90
2023/12/14 03:17:33;;;;;;;1.70;1.53;;;;;;;;;;6185259;23;20179;-89
2023/12/14 03:20:03;;;;;;;3.27;2.97;;;;;;;;;;6184764;23;20175;-88
2023/12/14 03:22:32;;;;;;;2.27;2.07;;;;;;;;;;6185152;23;20205;-89
2023/12/14 03:25:01;;;;;;;1.93;1.83;;;;;;;;;;6185101;23;20183;-89
2023/12/14 03:27:29;;;;;;;14.13;12.90;;;;;;;;;;6185206;23;20185;-89
2023/12/14 03:29:58;;;;;;;3.93;1.90;;;;;;;;;;6185029;23;20182;-89
2023/12/14 03:32:27;;;;;;;2.43;2.20;;;;;;;;;;6184415;23;20213;-90
2023/12/14 03:34:56;;;;;;;3.90;2.73;;;;;;;;;;6184785;23;20199;-88
2023/12/14 03:37:25;;;;;;;1.63;1.53;;;;;;;;;;6185334;23;20178;-89
2023/12/14 03:39:53;;;;;;;2.03;1.93;;;;;;;;;;6184498;23;20175;-89
2023/12/14 03:42:22;;;;;;;2.07;1.97;;;;;;;;;;6183973;23;20222;-89
2023/12/14 03:44:50;;;;;;;1.87;1.77;;;;;;;;;;6184383;23;20179;-88
2023/12/14 03:47:19;;;;;;;2.37;2.17;;;;;;;;;;6184676;23;20182;-89
2023/12/14 03:49:49;;;;;;;1.50;1.50;;;;;;;;;;6184877;23;20232;-89
2023/12/14 03:52:17;;;;;;;1.60;1.50;;;;;;;;;;6184725;23;20213;-89
2023/12/14 03:54:46;;;;;;;1.73;1.63;;;;;;;;;;6184647;23;20187;-89
2023/12/14 03:57:14;;;;;;;3.63;2.83;;;;;;;;;;6184868;23;20199;-90
2023/12/14 03:59:43;;;;;;;4.47;3.33;;;;;;;;;;6185011;23;20185;-89
2023/12/14 04:02:12;;;;;;;3.00;2.10;;;;;;;;;;6184226;23;20202;-88
2023/12/14 04:04:41;;;;;;;1.90;1.80;;;;;;;;;;6184881;23;20183;-89
2023/12/14 04:07:11;;;;;;;3.87;3.10;;;;;;;;;;6185063;23;20226;-88
2023/12/14 04:09:39;;;;;;;2.07;1.90;;;;;;;;;;6184676;23;20193;-88
2023/12/14 04:12:08;;;;;;;3.30;3.10;;;;;;;;;;6184100;23;20206;-88
2023/12/14 04:14:36;;;;;;;2.43;1.93;;;;;;;;;;6184495;23;20179;-89
2023/12/14 04:17:05;;;;;;;7.33;3.90;;;;;;;;;;6184520;23;20179;-89
2023/12/14 04:19:33;;;;;;;2.70;1.77;;;;;;;;;;6184511;23;20175;-89
2023/12/14 04:22:02;;;;;;;2.50;2.30;;;;;;;;;;6184260;23;20175;-88
2023/12/14 04:24:31;;;;;;;1.93;1.80;;;;;;;;;;6184605;23;20179;-89
2023/12/14 04:27:00;;;;;;;3.77;2.47;;;;;;;;;;6184462;23;20186;-89
2023/12/14 04:29:28;;;;;;;3.33;2.73;;;;;;;;;;6184633;23;20186;-89
2023/12/14 04:31:57;;;;;;;1.97;1.87;;;;;;;;;;6184287;23;20203;-89
2023/12/14 04:34:25;;;;;;;2.93;2.37;;;;;;;;;;6184666;23;20178;-88
2023/12/14 04:36:57;;;;;;;1.60;1.60;;;;;;;;;;6184740;23;20202;-89
2023/12/14 04:39:26;;;;;;;3.37;2.37;;;;;;;;;;6184876;23;20178;-89
2023/12/14 04:41:55;;;;;;;7.53;2.50;;;;;;;;;;6183213;23;20178;-88
2023/12/14 04:44:24;;;;;;;2.63;2.43;;;;;;;;;;6183581;23;20171;-89
2023/12/14 04:46:53;;;;;;;1.83;1.73;;;;;;;;;;6184873;23;20175;-87
2023/12/14 04:49:21;;;;;;;9.90;1.87;;;;;;;;;;6184208;23;20171;-88
2023/12/14 04:51:50;;;;;;;2.47;2.27;;;;;;;;;;6184020;23;20230;-88
2023/12/14 04:54:18;;;;;;;3.13;2.20;;;;;;;;;;6184074;23;20243;-89
2023/12/14 04:56:47;;;;;;;9.03;2.60;;;;;;;;;;6184192;23;20182;-89
2023/12/14 04:59:17;;;;;;;1.70;1.63;;;;;;;;;;6185607;23;20167;-89
2023/12/14 05:01:45;;;;;;;1.63;1.53;;;;;;;;;;6185620;23;20167;-90
2023/12/14 05:04:14;;;;;;;1.83;1.73;;;;;;;;;;6186055;23;20265;-89
2023/12/14 05:06:43;;;;;;;2.57;2.37;;;;;;;;;;6186808;23;20231;-88
2023/12/14 05:09:11;;;;;;;1.53;1.43;;;;;;;;;;6186917;23;20179;-88
2023/12/14 05:11:41;;;;;;;1.20;1.20;;;;;;;;;;6186077;23;20233;-89
2023/12/14 05:14:09;;;;;;;3.10;2.73;;;;;;;;;;6185983;23;20167;-89
2023/12/14 05:16:39;;;;;;;2.57;2.10;;;;;;;;;;6186813;23;20202;-89
2023/12/14 05:19:08;;;;;;;3.03;1.73;;;;;;;;;;6186398;23;20183;-87
2023/12/14 05:21:37;;;;;;;4.63;1.90;;;;;;;;;;6186083;23;20174;-88
2023/12/14 05:24:06;;;;;;;3.20;2.70;;;;;;;;;;6186112;23;20195;-89
2023/12/14 05:26:34;;;;;;;2.23;2.03;;;;;;;;;;6186914;23;20170;-89
2023/12/14 05:29:03;;;;;;;3.93;2.70;;;;;;;;;;6186294;23;20167;-88
2023/12/14 05:31:31;;;;;;;3.77;2.80;;;;;;;;;;6186286;23;20179;-89
2023/12/14 05:34:02;;;;;;;1.93;1.63;;;;;;;;;;6185758;23;20258;-89
2023/12/14 05:36:31;;;;;;;2.80;2.60;;;;;;;;;;6187167;23;20186;-89
2023/12/14 05:38:59;;;;;;;4.37;2.50;;;;;;;;;;6186634;23;20179;-88
2023/12/14 05:41:27;;;;;;;1.90;1.80;;;;;;;;;;6185910;23;20171;-88
2023/12/14 05:43:56;;;;;;;4.30;2.17;;;;;;;;;;6185702;23;20270;-87
2023/12/14 05:46:25;;;;;;;2.17;2.07;;;;;;;;;;6186513;23;20194;-89
2023/12/14 05:48:54;;;;;;;1.77;1.67;;;;;;;;;;6186890;23;20179;-89
2023/12/14 05:51:33;;;;;;;2.23;1.93;;;;;;;;;;6186203;23;20269;-89
2023/12/14 05:54:02;;;;;;;2.20;2.10;;;;;;;;;;6185770;23;20206;-89
2023/12/14 05:56:30;;;;;;;1.50;1.40;;;;;;;;;;6186838;23;20198;-89
2023/12/14 05:58:59;;;;;;;3.97;2.73;;;;;;;;;;6187048;23;20176;-89
2023/12/14 06:01:28;;;;;;;3.60;2.60;;;;;;;;;;6186052;23;20171;-88
2023/12/14 06:03:56;;;;;;;2.73;2.50;;;;;;;;;;6185401;23;20198;-89
2023/12/14 06:06:24;;;;;;;3.23;2.93;;;;;;;;;;6186025;23;20167;-88
2023/12/14 06:08:54;;;;;;;2.40;2.20;;;;;;;;;;6186061;23;20167;-86
2023/12/14 06:11:23;;;;;;;6.60;2.20;;;;;;;;;;6184749;23;20182;-86
2023/12/14 06:13:51;;;;;;;2.23;2.03;;;;;;;;;;6184876;23;20179;-86
2023/12/14 06:16:20;;;;;;;2.87;2.67;;;;;;;;;;6185397;23;20267;-86
2023/12/14 06:18:48;;;;;;;2.47;2.27;;;;;;;;;;6185236;23;20179;-86
2023/12/14 06:21:17;;;;;;;2.53;2.33;;;;;;;;;;6184886;23;20214;-86
2023/12/14 06:23:46;;;;;;;2.43;2.27;;;;;;;;;;6184205;23;20190;-86
2023/12/14 06:26:19;;;;;;;1.43;1.33;;;;;;;;;;6185159;23;20194;-86
2023/12/14 06:28:48;;;;;;;2.13;1.80;;;;;;;;;;6185029;23;20175;-86
2023/12/14 06:31:17;;;;;;;0.90;0.90;;;;;;;;;;6184723;23;20186;-86
2023/12/14 06:33:45;;;;;;;1.30;1.20;;;;;;;;;;6184361;23;20230;-86
2023/12/14 06:36:14;;;;;;;2.07;1.97;;;;;;;;;;6184575;23;20198;-86
2023/12/14 06:38:43;;;;;;;1.53;1.53;;;;;;;;;;6185336;23;20257;-86
2023/12/14 06:41:21;;;;;;;4.57;3.00;;;;;;;;;;6184802;23;20175;-86
2023/12/14 06:43:49;;;;;;;3.10;1.57;;;;;;;;;;6184758;23;20182;-86
2023/12/14 06:46:18;;;;;;;1.60;1.50;;;;;;;;;;6185129;23;20174;-86
2023/12/14 06:48:47;;;;;;;0.80;0.80;;;;;;;;;;6184790;23;20186;-86
2023/12/14 06:51:16;;;;;;;1.77;1.67;;;;;;;;;;6185098;23;20183;-84
2023/12/14 06:53:45;;;;;;;3.13;2.43;;;;;;;;;;6184460;23;20182;-86
2023/12/14 06:56:14;;;;;;;1.80;1.70;;;;;;;;;;6184756;23;20251;-85
2023/12/14 06:58:45;;;;;;;0.80;0.80;;;;;;;;;;6184781;23;20175;-86
2023/12/14 07:01:14;;;;;;;2.03;2.03;;;;;;;;;;6184692;23;20183;-85
2023/12/14 07:03:44;;;;;;;1.60;1.53;;;;;;;;;;6184007;23;20234;-85
2023/12/14 07:06:14;;;;;;;8.67;2.30;;;;;;;;;;6184934;23;20181;-86
2023/12/14 07:08:42;;;;;;;0.80;0.80;;;;;;;;;;6185790;23;20179;-85
2023/12/14 07:11:12;;;;;;;0.80;0.80;;;;;;;;;;6184617;23;20178;-86
2023/12/14 07:13:41;;;;;;;1.10;1.10;;;;;;;;;;6183943;23;20231;-85
2023/12/14 07:16:11;;;;;;;1.83;1.73;;;;;;;;;;6184431;23;20178;-85
2023/12/14 07:18:40;;;;;;;0.80;0.80;;;;;;;;;;6185208;23;20180;-85
2023/12/14 07:21:10;;;;;;;0.70;0.70;;;;;;;;;;6184669;23;20186;-85
2023/12/14 07:23:38;;;;;;;1.10;1.10;;;;;;;;;;6183837;23;20218;-85
2023/12/14 07:26:07;;;;;;;0.70;0.70;;;;;;;;;;6184944;23;20175;-85
2023/12/14 07:28:36;;;;;;;1.23;1.23;;;;;;;;;;6184868;23;20178;-85
2023/12/14 07:31:05;;;;;;;2.63;1.93;;;;;;;;;;6184472;23;20198;-85
2023/12/14 07:33:35;;;;;;;0.90;0.90;;;;;;;;;;6183817;23;20206;-85
2023/12/14 07:36:05;;;;;;;2.20;2.20;;;;;;;;;;6184446;23;20241;-85
2023/12/14 07:38:34;;;;;;;0.70;0.70;;;;;;;;;;6184210;23;20191;-85
2023/12/14 07:41:03;;;;;;;0.80;0.80;;;;;;;;;;6184762;23;20182;-85
2023/12/14 07:43:31;;;;;;;0.80;0.80;;;;;;;;;;6183440;23;20202;-85
2023/12/14 07:46:00;;;;;;;0.70;0.70;;;;;;;;;;6184617;23;20266;-85
2023/12/14 07:48:29;;;;;;;0.80;0.80;;;;;;;;;;6184471;23;20274;-85
2023/12/14 07:50:59;;;;;;;0.70;0.70;;;;;;;;;;6184357;23;20170;-85
2023/12/14 07:53:28;;;;;;;0.90;0.90;;;;;;;;;;6184262;23;20258;-85
2023/12/14 07:55:58;;;;;;;1.00;1.00;;;;;;;;;;6185044;23;20229;-86
2023/12/14 07:58:27;;;;;;;0.90;0.90;;;;;;;;;;6184600;23;20219;-85
2023/12/14 08:00:56;;;;;;;1.10;1.10;;;;;;;;;;6184893;23;20203;-85
2023/12/14 08:03:24;;;;;;;0.70;0.70;;;;;;;;;;6183960;23;20253;-86
2023/12/14 08:05:53;;;;;;;0.80;0.80;;;;;;;;;;6184439;23;20170;-85
2023/12/14 08:08:24;;;;;;;0.80;0.80;;;;;;;;;;6184297;23;20175;-85
2023/12/14 08:10:52;;;;;;;1.20;1.20;;;;;;;;;;6185268;23;20213;-85
2023/12/14 08:13:20;;;;;;;0.70;0.70;;;;;;;;;;6184385;23;20186;-85
2023/12/14 08:15:49;;;;;;;1.10;1.10;;;;;;;;;;6184677;23;20178;-85
2023/12/14 08:18:17;;;;;;;0.80;0.80;;;;;;;;;;6184754;23;20191;-85
2023/12/14 08:20:46;;;;;;;1.20;1.10;;;;;;;;;;6184756;23;20167;-85
2023/12/14 08:23:14;;;;;;;2.63;1.40;;;;;;;;;;6184477;23;20199;-85
2023/12/14 08:25:45;;;;;;;0.90;0.90;;;;;;;;;;6184343;23;20171;-85
2023/12/14 08:28:13;;;;;;;0.90;0.90;;;;;;;;;;6184512;23;20225;-86
2023/12/14 08:30:42;;;;;;;0.80;0.80;;;;;;;;;;6184637;23;20182;-85
2023/12/14 08:33:10;;;;;;;2.50;2.40;;;;;;;;;;6183794;23;20253;-80
2023/12/14 08:35:39;;;;;;;0.80;0.80;;;;;;;;;;6184579;23;20254;-77
2023/12/14 08:38:08;;;;;;;0.90;0.90;;;;;;;;;;6184510;23;20199;-80
2023/12/14 08:40:36;;;;;;;1.40;1.40;;;;;;;;;;6184765;23;20179;-79
2023/12/14 08:43:06;;;;;;;1.00;1.00;;;;;;;;;;6184220;23;20171;-79
2023/12/14 08:45:34;;;;;;;3.70;2.20;;;;;;;;;;6183837;23;20198;-79
2023/12/14 08:48:03;;;;;;;1.50;1.30;;;;;;;;;;6184459;23;20171;-85
2023/12/14 08:50:32;;;;;;;1.47;1.47;;;;;;;;;;6184599;23;20198;-85
2023/12/14 08:53:01;;;;;;;2.30;2.20;;;;;;;;;;6184363;23;20179;-85
2023/12/14 08:55:30;;;;;;;2.03;1.90;;;;;;;;;;6184596;23;20171;-85
2023/12/14 08:57:58;;;;;;;4.73;2.83;;;;;;;;;;6184499;23;20224;-85
2023/12/14 09:00:28;;;;;;;2.90;2.03;;;;;;;;;;6184429;23;20251;-85
2023/12/14 09:02:57;;;;;;;9.90;1.83;;;;;;;;;;6184363;23;20171;-85
2023/12/14 09:05:26;;;;;;;2.00;1.90;;;;;;;;;;6183766;23;20184;-85
2023/12/14 09:07:56;;;;;;;1.63;1.53;;;;;;;;;;6184573;23;20182;-85
2023/12/14 09:10:25;;;;;;;3.50;2.13;;;;;;;;;;6184464;23;20179;-85
2023/12/14 09:12:54;;;;;;;0.77;0.77;;;;;;;;;;6183899;23;20222;-85
2023/12/14 09:15:23;;;;;;;1.73;1.03;;;;;;;;;;6184197;23;20262;-85
2023/12/14 09:17:54;;;;;;;0.70;0.70;;;;;;;;;;6185066;23;20202;-85
2023/12/14 09:20:23;;;;;;;0.70;0.70;;;;;;;;;;6184244;23;20175;-85
2023/12/14 09:22:54;;;;;;;1.33;1.33;;;;;;;;;;6183650;23;20246;-85
2023/12/14 09:25:24;;;;;;;1.17;1.17;;;;;;;;;;6183629;23;20175;-85
2023/12/14 09:27:52;;;;;;;1.80;1.70;;;;;;;;;;6184835;23;20167;-85
2023/12/14 09:30:21;;;;;;;1.13;0.90;;;;;;;;;;6184416;23;20186;-85
2023/12/14 09:32:49;;;;;;;2.13;1.63;;;;;;;;;;6183996;23;20291;-85
2023/12/14 09:35:19;;;;;;;0.90;0.90;;;;;;;;;;6183977;23;20175;-85
2023/12/14 09:37:48;;;;;;;1.50;1.43;;;;;;;;;;6184521;23;20234;-85
2023/12/14 09:40:18;;;;;;;0.70;0.70;;;;;;;;;;6184316;23;20181;-85
2023/12/14 09:42:47;;;;;;;0.70;0.70;;;;;;;;;;6184307;23;20186;-85
2023/12/14 09:45:18;;;;;;;5.07;2.30;;;;;;;;;;6184051;23;20180;-85
2023/12/14 09:47:47;;;;;;;4.43;3.40;;;;;;;;;;6185773;23;20179;-85
2023/12/14 09:50:16;;;;;;;3.60;2.70;;;;;;;;;;6185764;23;20171;-85
2023/12/14 09:52:48;;;;;;;0.90;0.90;;;;;;;;;;6185973;23;20173;-85
2023/12/14 09:55:17;;;;;;;0.70;0.70;;;;;;;;;;6185410;23;20194;-86
2023/12/14 09:57:46;;;;;;;0.70;0.70;;;;;;;;;;6185637;23;20168;-85
2023/12/14 10:00:15;;;;;;;1.03;1.03;;;;;;;;;;6185863;23;20175;-85
2023/12/14 10:02:43;;;;;;;0.70;0.70;;;;;;;;;;6185757;23;20178;-85
2023/12/14 10:05:12;;;;;;;3.90;3.10;;;;;;;;;;6185193;23;20183;-85
2023/12/14 10:07:44;;;;;;;1.47;1.40;;;;;;;;;;6186512;23;20182;-86
2023/12/14 10:10:15;;;;;;;0.70;0.70;;;;;;;;;;6185863;23;20262;-85
2023/12/14 10:12:53;;;;;;;0.90;0.90;;;;;;;;;;6185528;23;20263;-88
2023/12/14 10:15:23;;;;;;;0.80;0.80;;;;;;;;;;6185135;23;20176;-89
2023/12/14 10:17:54;;;;;;;0.80;0.80;;;;;;;;;;6185800;23;20179;-89
2023/12/14 10:20:23;;;;;;;0.80;0.80;;;;;;;;;;6191051;23;20202;-86
2023/12/14 10:22:52;;;;;;;7.83;6.10;;;;;;;;;;6185837;23;20187;-85
2023/12/14 10:25:22;;;;;;;11.43;6.60;;;;;;;;;;6184540;23;20202;-85
2023/12/14 10:27:53;;;;;;;7.87;4.40;;;;;;;;;;6185803;23;20183;-85
2023/12/14 10:30:21;;;;;;;2.33;2.13;;;;;;;;;;6185458;23;20190;-85
2023/12/14 10:32:51;;;;;;;5.07;4.30;;;;;;;;;;6185527;23;20230;-86
2023/12/14 10:35:21;;;;;;;4.77;3.83;;;;;;;;;;6184779;23;20172;-85
2023/12/14 10:37:52;;;;;;;8.50;5.23;;;;;;;;;;6185741;23;20233;-85
2023/12/14 10:40:21;;;;;;;8.43;5.97;;;;;;;;;;6185095;23;20201;-85
2023/12/14 10:42:52;;;;;;;8.00;7.20;;;;;;;;;;6185338;23;20173;-86
2023/12/14 10:45:21;;;;;;;4.77;4.37;;;;;;;;;;6184635;23;20179;-85
2023/12/14 10:47:54;;;;;;;1.83;1.73;;;;;;;;;;6185754;23;20186;-85
2023/12/14 10:50:24;;;;;;;5.80;5.00;;;;;;;;;;6185155;23;20175;-84
2023/12/14 10:52:53;;;;;;;3.73;3.27;;;;;;;;;;6185620;23;20183;-85
2023/12/14 10:55:24;;;;;;;9.67;7.20;;;;;;;;;;6184303;23;20171;-85
2023/12/14 10:57:54;;;;;;;8.73;5.00;;;;;;;;;;6184794;23;20218;-85
2023/12/14 11:00:23;;;;;;;2.63;2.43;;;;;;;;;;6184864;23;20194;-85
2023/12/14 11:02:52;;;;;;;1.37;1.37;;;;;;;;;;6185007;23;20179;-85
2023/12/14 11:05:29;;;;;;;2.63;2.53;;;;;;;;;;6184289;23;20265;-85
2023/12/14 11:08:03;;;;;;;8.33;5.20;;;;;;;;;;6185896;23;20254;-85
2023/12/14 11:10:38;;;;;;;5.87;5.03;;;;;;;;;;6185647;23;20182;-85
2023/12/14 11:13:12;;;;;;;6.60;4.50;;;;;;;;;;6185099;23;20177;-85
2023/12/14 11:15:40;;;;;;;7.73;5.13;;;;;;;;;;6184807;23;20167;-85
2023/12/14 11:18:25;;;;;;;5.30;3.50;;;;;;;;;;6184901;23;20210;-85
2023/12/14 11:21:00;;;;;;;7.70;6.00;;;;;;;;;;6185298;23;20239;-85
2023/12/14 11:23:30;;;;;;;6.50;5.10;;;;;;;;;;6184739;23;20213;-85
2023/12/14 11:26:02;;;;;;;7.60;4.50;;;;;;;;;;6184705;23;20171;-86
2023/12/14 11:28:33;;;;;;;2.20;1.77;;;;;;;;;;6184618;23;20242;-85
2023/12/14 11:31:06;;;;;;;8.13;5.23;;;;;;;;;;6184871;23;20180;-85
2023/12/14 11:33:35;;;;;;;5.53;4.60;;;;;;;;;;6184862;23;20206;-85
2023/12/14 11:36:11;;;;;;;8.93;5.37;;;;;;;;;;6183990;23;20174;-85
2023/12/14 11:38:44;;;;;;;1.83;1.73;;;;;;;;;;6184026;23;20202;-85
2023/12/14 11:41:12;;;;;;;5.00;4.13;;;;;;;;;;6182682;23;20184;-85
2023/12/14 11:43:43;;;;;;;6.67;6.07;;;;;;;;;;6184235;23;20182;-85
2023/12/14 11:46:16;;;;;;;2.60;2.40;;;;;;;;;;6183806;23;20187;-86
2023/12/14 11:48:46;;;;;;;4.63;3.50;;;;;;;;;;6184011;23;20222;-86
2023/12/14 11:51:18;;;;;;;3.10;2.80;;;;;;;;;;6184087;23;20262;-86
2023/12/14 11:53:48;;;;;;;4.43;4.03;;;;;;;;;;6183758;23;20176;-86
2023/12/14 11:56:19;;;;;;;4.60;3.53;;;;;;;;;;6183772;23;20202;-86
2023/12/14 11:58:50;;;;;;;4.60;3.33;;;;;;;;;;6183142;23;20178;-86
2023/12/14 12:01:20;;;;;;;6.70;4.73;;;;;;;;;;6181504;23;20178;-88
2023/12/14 12:03:49;;;;;;;3.43;3.00;;;;;;;;;;6183114;23;20182;-86
2023/12/14 12:06:22;;;;;;;6.97;4.67;;;;;;;;;;6183519;23;20175;-86
2023/12/14 12:08:52;;;;;;;5.50;2.93;;;;;;;;;;6185952;23;20171;-87
2023/12/14 12:11:22;;;;;;;6.40;5.30;;;;;;;;;;6187895;23;20171;-87
2023/12/14 12:13:59;;;;;;;3.93;3.23;;;;;;;;;;6187113;23;20181;-88
2023/12/14 12:16:29;;;;;;;2.27;2.13;;;;;;;;;;6185251;23;20170;-87
2023/12/14 12:18:57;;;;;;;5.33;3.33;;;;;;;;;;6185075;23;20174;-86
2023/12/14 12:21:26;;;;;;;5.03;3.97;;;;;;;;;;6189310;23;20174;-87
2023/12/14 12:23:54;;;;;;;4.40;3.63;;;;;;;;;;6184230;23;20199;-88
2023/12/14 12:26:23;;;;;;;2.40;1.83;;;;;;;;;;6185928;23;20178;-87
2023/12/14 12:28:52;;;;;;;0.83;0.83;;;;;;;;;;6186554;23;20264;-87
2023/12/14 12:31:23;;;;;;;1.20;1.17;;;;;;;;;;6188277;23;20176;-87
2023/12/14 12:33:51;;;;;;;4.57;3.63;;;;;;;;;;6185848;23;20210;-87
2023/12/14 12:36:21;;;;;;;4.17;3.67;;;;;;;;;;6183568;23;20202;-86
2023/12/14 12:38:51;;;;;;;2.13;1.90;;;;;;;;;;6183448;23;20170;-86
2023/12/14 12:41:19;;;;;;;1.20;1.20;;;;;;;;;;6183799;23;20281;-87
2023/12/14 12:43:48;;;;;;;0.83;0.83;;;;;;;;;;6187747;23;20167;-87
2023/12/14 12:46:18;;;;;;;0.90;0.90;;;;;;;;;;6183406;23;20259;-86
2023/12/14 12:48:48;;;;;;;0.80;0.80;;;;;;;;;;6184909;23;20254;-88
2023/12/14 12:51:17;;;;;;;1.00;1.00;;;;;;;;;;6188070;23;20179;-87
2023/12/14 12:53:46;;;;;;;0.80;0.80;;;;;;;;;;6186335;23;20251;-87
2023/12/14 12:56:15;;;;;;;0.80;0.80;;;;;;;;;;6183610;23;20172;-87
2023/12/14 12:58:43;;;;;;;1.10;1.10;;;;;;;;;;6186964;23;20186;-87
2023/12/14 13:01:15;;;;;;;4.90;4.10;;;;;;;;;;6185275;23;20191;-86
2023/12/14 13:03:44;;;;;;;7.27;4.03;;;;;;;;;;6184958;23;20263;-86
2023/12/14 13:06:14;;;;;;;5.23;4.33;;;;;;;;;;6184545;23;20182;-86
2023/12/14 13:08:43;;;;;;;2.77;2.40;;;;;;;;;;6184583;23;20281;-87
2023/12/14 13:11:12;;;;;;;6.40;3.90;;;;;;;;;;6184383;23;20167;-87
2023/12/14 13:13:43;;;;;;;1.30;1.23;;;;;;;;;;6184130;23;20171;-86
2023/12/14 13:16:14;;;;;;;0.80;0.80;;;;;;;;;;6182850;23;20171;-86
2023/12/14 13:18:43;;;;;;;3.63;2.40;;;;;;;;;;6184549;23;20172;-87
2023/12/14 13:21:11;;;;;;;1.00;1.00;;;;;;;;;;6186565;23;20351;-86
2023/12/14 13:23:44;;;;;;;5.10;3.80;;;;;;;;;;6187670;23;20211;-86
2023/12/14 13:26:13;;;;;;;3.23;2.73;;;;;;;;;;6186791;23;20170;-87
2023/12/14 13:28:41;;;;;;;2.73;1.87;;;;;;;;;;6185986;23;20175;-86
2023/12/14 13:31:10;;;;;;;10.17;4.50;;;;;;;;;;6187027;23;20167;-87
2023/12/14 13:33:43;;;;;;;2.40;2.30;;;;;;;;;;6186959;23;20230;-86
2023/12/14 13:36:13;;;;;;;1.87;1.53;;;;;;;;;;6187602;23;20226;-88
2023/12/14 13:38:42;;;;;;;4.00;2.80;;;;;;;;;;6185337;23;20179;-87
2023/12/14 13:44:12;;;;;;;4.13;2.87;;;;;;;;;;6129169;23;20297;-84
2023/12/14 13:46:40;;;;;;;8.27;5.07;;;;;;;;;;6175717;23;20187;-85
2023/12/14 13:49:11;;;;;;;3.03;2.23;;;;;;;;;;6177749;23;20175;-85
2023/12/14 13:51:41;;;;;;;4.83;3.53;;;;;;;;;;6183537;23;20167;-84
2023/12/14 13:54:10;;;;;;;4.47;3.87;;;;;;;;;;6184349;23;20176;-85
2023/12/14 13:56:40;;;;;;;5.70;3.97;;;;;;;;;;6183879;23;20171;-84
2023/12/14 13:59:12;;;;;;;5.37;3.83;;;;;;;;;;6183966;23;20186;-84
2023/12/14 14:01:41;;;;;;;5.43;4.00;;;;;;;;;;6184050;23;20191;-84
2023/12/14 14:04:14;;;;;;;3.43;3.00;;;;;;;;;;6184467;23;20206;-84
2023/12/14 14:06:45;;;;;;;2.70;2.23;;;;;;;;;;6184006;23;20179;-84
2023/12/14 14:09:16;;;;;;;5.70;3.50;;;;;;;;;;6184348;23;20174;-83
2023/12/14 14:11:48;;;;;;;8.83;6.07;;;;;;;;;;6183655;23;20172;-83
2023/12/14 14:14:19;;;;;;;5.30;3.47;;;;;;;;;;6184085;23;20175;-85
2023/12/14 14:16:48;;;;;;;4.57;4.00;;;;;;;;;;6184588;23;20179;-83
2023/12/14 14:19:17;;;;;;;11.10;4.57;;;;;;;;;;6183123;23;20210;-84
2023/12/14 14:21:46;;;;;;;4.93;3.47;;;;;;;;;;6183683;23;20203;-84
2023/12/14 14:24:14;;;;;;;6.80;3.93;;;;;;;;;;6184036;23;20171;-84
2023/12/14 14:26:43;;;;;;;8.97;4.17;;;;;;;;;;6183791;23;20171;-84
2023/12/14 14:29:13;;;;;;;7.77;4.87;;;;;;;;;;6182940;23;20171;-85
2023/12/14 14:31:42;;;;;;;7.03;3.93;;;;;;;;;;6184168;23;20227;-84
2023/12/14 14:34:11;;;;;;;8.47;5.63;;;;;;;;;;6184096;23;20198;-84
2023/12/14 14:36:44;;;;;;;10.53;6.73;;;;;;;;;;6183110;23;20206;-84
2023/12/14 14:39:13;;;;;;;5.93;4.57;;;;;;;;;;6183351;23;20182;-84
2023/12/14 14:41:59;;;;;;;10.13;5.77;;;;;;;;;;6183312;23;20241;-84
2023/12/14 14:44:30;;;;;;;4.27;3.27;;;;;;;;;;6183596;23;20211;-85
2023/12/14 14:46:58;;;;;;;9.33;5.53;;;;;;;;;;6183056;23;20332;-84
2023/12/14 14:49:27;;;;;;;11.80;6.57;;;;;;;;;;6182665;23;20185;-84
2023/12/14 14:51:56;;;;;;;3.60;2.67;;;;;;;;;;6183398;23;20171;-84
2023/12/14 14:54:25;;;;;;;6.70;3.43;;;;;;;;;;6183071;23;20221;-84
2023/12/14 14:56:54;;;;;;;7.77;6.53;;;;;;;;;;6182695;23;20171;-84
2023/12/14 14:59:22;;;;;;;9.17;6.77;;;;;;;;;;6182643;23;20206;-84